createdAt,value
2023-05-04T00:00:47.824Z,615.00
2023-05-04T00:01:48.571Z,614.00
2023-05-04T00:02:48.082Z,614.00
2023-05-04T00:03:48.313Z,614.00
2023-05-04T00:04:48.129Z,612.00
2023-05-04T00:05:48.096Z,610.00
2023-05-04T00:06:48.163Z,610.00
2023-05-04T00:07:48.594Z,609.00
2023-05-04T00:08:48.287Z,608.00
2023-05-04T00:09:48.323Z,608.00
2023-05-04T00:10:48.380Z,608.00
2023-05-04T00:11:48.431Z,607.00
2023-05-04T00:12:48.526Z,607.00
2023-05-04T00:13:48.518Z,610.00
2023-05-04T00:14:49.074Z,613.00
2023-05-04T00:15:48.647Z,612.00
2023-05-04T00:16:48.845Z,612.00
2023-05-04T00:17:48.797Z,613.00
2023-05-04T00:18:48.803Z,615.00
2023-05-04T00:19:48.861Z,616.00
2023-05-04T00:20:48.892Z,616.00
2023-05-04T00:21:48.960Z,612.00
2023-05-04T00:22:49.004Z,613.00
2023-05-04T00:23:49.117Z,612.00
2023-05-04T00:24:49.106Z,615.00
2023-05-04T00:25:49.135Z,616.00
2023-05-04T00:26:49.175Z,615.00
2023-05-04T00:27:49.226Z,619.00
2023-05-04T00:28:49.285Z,619.00
2023-05-04T00:29:49.297Z,617.00
2023-05-04T00:30:49.356Z,618.00
2023-05-04T00:31:49.402Z,615.00
2023-05-04T00:32:49.466Z,612.00
2023-05-04T00:33:49.494Z,615.00
2023-05-04T00:34:50.084Z,613.00
2023-05-04T00:35:49.611Z,612.00
2023-05-04T00:36:49.619Z,612.00
2023-05-04T00:37:49.673Z,613.00
2023-05-04T00:38:49.714Z,614.00
2023-05-04T00:39:49.753Z,613.00
2023-05-04T00:40:49.802Z,613.00
2023-05-04T00:41:49.862Z,613.00
2023-05-04T00:42:49.919Z,614.00
2023-05-04T00:43:49.951Z,614.00
2023-05-04T00:44:50.002Z,615.00
2023-05-04T00:45:50.069Z,613.00
2023-05-04T00:46:50.185Z,616.00
2023-05-04T00:47:50.253Z,618.00
2023-05-04T00:48:50.197Z,619.00
2023-05-04T00:49:50.393Z,614.00
2023-05-04T00:50:50.299Z,614.00
2023-05-04T00:51:50.374Z,613.00
2023-05-04T00:52:50.401Z,613.00
2023-05-04T00:53:50.450Z,612.00
2023-05-04T00:54:50.494Z,615.00
2023-05-04T00:55:50.560Z,616.00
2023-05-04T00:56:50.631Z,616.00
2023-05-04T00:57:50.675Z,614.00
2023-05-04T00:58:50.717Z,612.00
2023-05-04T00:59:50.769Z,610.00
2023-05-04T01:00:50.871Z,609.00
2023-05-04T01:01:50.894Z,605.00
2023-05-04T01:02:51.002Z,606.00
2023-05-04T01:03:51.012Z,608.00
2023-05-04T01:04:51.061Z,608.00
2023-05-04T01:05:51.190Z,607.00
2023-05-04T01:06:51.152Z,608.00
2023-05-04T01:07:51.221Z,610.00
2023-05-04T01:08:51.267Z,610.00
2023-05-04T01:09:51.323Z,609.00
2023-05-04T01:10:51.380Z,610.00
2023-05-04T01:11:51.432Z,610.00
2023-05-04T01:12:51.570Z,611.00
2023-05-04T01:13:51.537Z,612.00
2023-05-04T01:14:51.599Z,609.00
2023-05-04T01:15:51.644Z,608.00
2023-05-04T01:16:51.720Z,607.00
2023-05-04T01:17:51.777Z,609.00
2023-05-04T01:18:51.799Z,607.00
2023-05-04T01:19:51.862Z,606.00
2023-05-04T01:20:51.917Z,605.00
2023-05-04T01:21:51.954Z,603.00
2023-05-04T01:22:51.993Z,605.00
2023-05-04T01:23:52.044Z,603.00
2023-05-04T01:24:52.094Z,603.00
2023-05-04T01:25:52.163Z,603.00
2023-05-04T01:26:52.185Z,603.00
2023-05-04T01:27:52.233Z,603.00
2023-05-04T01:28:52.280Z,602.00
2023-05-04T01:29:52.343Z,602.00
2023-05-04T01:30:52.531Z,605.00
2023-05-04T01:31:52.455Z,603.00
2023-05-04T01:32:52.502Z,603.00
2023-05-04T01:33:52.535Z,605.00
2023-05-04T01:34:52.589Z,605.00
2023-05-04T01:35:52.654Z,603.00
2023-05-04T01:36:52.686Z,602.00
2023-05-04T01:37:52.751Z,601.00
2023-05-04T01:38:52.858Z,604.00
2023-05-04T01:39:52.842Z,606.00
2023-05-04T01:40:52.893Z,605.00
2023-05-04T01:41:52.956Z,604.00
2023-05-04T01:42:53.011Z,603.00
2023-05-04T01:43:53.051Z,605.00
2023-05-04T01:44:53.098Z,605.00
2023-05-04T01:45:53.182Z,608.00
2023-05-04T01:46:53.228Z,607.00
2023-05-04T01:47:53.655Z,604.00
2023-05-04T01:48:53.336Z,603.00
2023-05-04T01:49:53.389Z,602.00
2023-05-04T01:50:53.512Z,601.00
2023-05-04T01:51:53.491Z,602.00
2023-05-04T01:52:53.545Z,600.00
2023-05-04T01:53:53.580Z,597.00
2023-05-04T01:54:53.632Z,599.00
2023-05-04T01:55:53.705Z,599.00
2023-05-04T01:56:53.731Z,598.00
2023-05-04T01:57:53.796Z,598.00
2023-05-04T01:58:53.833Z,599.00
2023-05-04T01:59:53.881Z,594.00
2023-05-04T02:00:53.924Z,592.00
2023-05-04T02:01:53.999Z,593.00
2023-05-04T02:02:54.115Z,594.00
2023-05-04T02:03:54.157Z,595.00
2023-05-04T02:04:54.106Z,592.00
2023-05-04T02:05:54.158Z,593.00
2023-05-04T02:06:54.232Z,595.00
2023-05-04T02:07:54.256Z,592.00
2023-05-04T02:08:54.305Z,593.00
2023-05-04T02:09:55.122Z,592.00
2023-05-04T02:10:54.401Z,593.00
2023-05-04T02:11:54.457Z,596.00
2023-05-04T02:12:54.511Z,600.00
2023-05-04T02:13:54.550Z,602.00
2023-05-04T02:14:54.600Z,602.00
2023-05-04T02:15:54.675Z,603.00
2023-05-04T02:16:54.711Z,598.00
2023-05-04T02:17:54.771Z,600.00
2023-05-04T02:18:54.837Z,600.00
2023-05-04T02:19:54.834Z,601.00
2023-05-04T02:20:54.852Z,602.00
2023-05-04T02:21:54.909Z,603.00
2023-05-04T02:22:54.969Z,604.00
2023-05-04T02:23:55.014Z,603.00
2023-05-04T02:24:55.054Z,605.00
2023-05-04T02:25:55.110Z,604.00
2023-05-04T02:26:55.148Z,602.00
2023-05-04T02:27:55.207Z,603.00
2023-05-04T02:28:55.341Z,604.00
2023-05-04T02:29:55.301Z,600.00
2023-05-04T02:30:55.369Z,599.00
2023-05-04T02:31:55.483Z,599.00
2023-05-04T02:32:55.498Z,601.00
2023-05-04T02:33:55.501Z,600.00
2023-05-04T02:34:55.560Z,600.00
2023-05-04T02:35:55.666Z,598.00
2023-05-04T02:36:55.672Z,599.00
2023-05-04T02:37:55.777Z,600.00
2023-05-04T02:38:55.756Z,599.00
2023-05-04T02:39:55.794Z,599.00
2023-05-04T02:40:55.836Z,596.00
2023-05-04T02:41:55.879Z,594.00
2023-05-04T02:42:55.954Z,594.00
2023-05-04T02:43:55.988Z,595.00
2023-05-04T02:44:56.061Z,597.00
2023-05-04T02:45:56.136Z,599.00
2023-05-04T02:46:56.138Z,599.00
2023-05-04T02:47:56.220Z,599.00
2023-05-04T02:48:56.258Z,598.00
2023-05-04T02:49:56.276Z,596.00
2023-05-04T02:50:56.331Z,595.00
2023-05-04T02:51:56.383Z,594.00
2023-05-04T02:52:56.425Z,596.00
2023-05-04T02:53:56.545Z,595.00
2023-05-04T02:54:56.538Z,597.00
2023-05-04T02:55:57.139Z,598.00
2023-05-04T02:56:56.602Z,598.00
2023-05-04T02:57:56.641Z,598.00
2023-05-04T02:58:56.750Z,594.00
2023-05-04T02:59:56.806Z,592.00
2023-05-04T03:00:56.828Z,590.00
2023-05-04T03:01:56.883Z,589.00
2023-05-04T03:02:56.914Z,591.00
2023-05-04T03:03:56.949Z,591.00
2023-05-04T03:04:56.985Z,592.00
2023-05-04T03:05:57.031Z,591.00
2023-05-04T03:06:57.088Z,590.00
2023-05-04T03:07:57.138Z,591.00
2023-05-04T03:08:57.184Z,593.00
2023-05-04T03:09:57.248Z,594.00
2023-05-04T03:10:57.297Z,594.00
2023-05-04T03:11:57.357Z,590.00
2023-05-04T03:12:57.477Z,589.00
2023-05-04T03:13:57.466Z,589.00
2023-05-04T03:14:57.525Z,591.00
2023-05-04T03:15:57.623Z,590.00
2023-05-04T03:16:57.666Z,590.00
2023-05-04T03:17:57.781Z,589.00
2023-05-04T03:18:57.736Z,590.00
2023-05-04T03:19:57.876Z,591.00
2023-05-04T03:20:57.830Z,592.00
2023-05-04T03:21:57.898Z,590.00
2023-05-04T03:22:57.926Z,590.00
2023-05-04T03:23:57.961Z,590.00
2023-05-04T03:24:58.016Z,590.00
2023-05-04T03:25:58.050Z,590.00
2023-05-04T03:26:58.174Z,590.00
2023-05-04T03:27:58.151Z,593.00
2023-05-04T03:28:58.184Z,595.00
2023-05-04T03:29:59.181Z,594.00
2023-05-04T03:30:58.328Z,594.00
2023-05-04T03:31:58.400Z,596.00
2023-05-04T03:32:58.394Z,598.00
2023-05-04T03:33:58.427Z,594.00
2023-05-04T03:34:58.544Z,594.00
2023-05-04T03:35:58.515Z,596.00
2023-05-04T03:36:58.572Z,595.00
2023-05-04T03:37:58.605Z,598.00
2023-05-04T03:38:58.656Z,599.00
2023-05-04T03:39:58.719Z,601.00
2023-05-04T03:40:58.753Z,601.00
2023-05-04T03:41:58.819Z,598.00
2023-05-04T03:42:58.856Z,596.00
2023-05-04T03:43:58.926Z,596.00
2023-05-04T03:44:58.967Z,595.00
2023-05-04T03:45:59.075Z,595.00
2023-05-04T03:46:59.064Z,596.00
2023-05-04T03:47:59.132Z,598.00
2023-05-04T03:48:59.140Z,597.00
2023-05-04T03:49:59.209Z,596.00
2023-05-04T03:50:59.275Z,593.00
2023-05-04T03:51:59.334Z,592.00
2023-05-04T03:52:59.392Z,591.00
2023-05-04T03:53:59.450Z,590.00
2023-05-04T03:54:59.488Z,590.00
2023-05-04T03:55:59.549Z,590.00
2023-05-04T03:56:59.602Z,590.00
2023-05-04T03:57:59.659Z,592.00
2023-05-04T03:58:59.720Z,590.00
2023-05-04T03:59:59.755Z,589.00
2023-05-04T04:00:59.822Z,588.00
2023-05-04T04:01:59.889Z,588.00
2023-05-04T04:03:00.005Z,587.00
2023-05-04T04:04:00.058Z,586.00
2023-05-04T04:05:00.029Z,582.00
2023-05-04T04:06:00.094Z,582.00
2023-05-04T04:07:00.133Z,580.00
2023-05-04T04:08:00.230Z,581.00
2023-05-04T04:09:00.228Z,581.00
2023-05-04T04:10:00.266Z,582.00
2023-05-04T04:11:00.345Z,582.00
2023-05-04T04:12:00.387Z,585.00
2023-05-04T04:13:00.487Z,583.00
2023-05-04T04:14:00.492Z,582.00
2023-05-04T04:15:00.562Z,584.00
2023-05-04T04:16:00.616Z,584.00
2023-05-04T04:17:00.652Z,584.00
2023-05-04T04:18:00.803Z,584.00
2023-05-04T04:19:00.725Z,585.00
2023-05-04T04:20:00.765Z,585.00
2023-05-04T04:21:01.675Z,585.00
2023-05-04T04:22:00.870Z,583.00
2023-05-04T04:23:00.923Z,584.00
2023-05-04T04:24:00.972Z,585.00
2023-05-04T04:25:00.995Z,583.00
2023-05-04T04:26:01.180Z,583.00
2023-05-04T04:27:01.125Z,582.00
2023-05-04T04:28:01.183Z,580.00
2023-05-04T04:29:01.223Z,581.00
2023-05-04T04:30:01.294Z,582.00
2023-05-04T04:31:01.439Z,582.00
2023-05-04T04:32:01.360Z,580.00
2023-05-04T04:33:01.458Z,579.00
2023-05-04T04:34:01.437Z,580.00
2023-05-04T04:35:01.472Z,578.00
2023-05-04T04:36:01.508Z,580.00
2023-05-04T04:37:01.557Z,580.00
2023-05-04T04:38:03.629Z,580.00
2023-05-04T04:39:01.668Z,582.00
2023-05-04T04:40:01.719Z,583.00
2023-05-04T04:41:01.754Z,582.00
2023-05-04T04:42:01.818Z,581.00
2023-05-04T04:43:01.871Z,582.00
2023-05-04T04:44:01.917Z,583.00
2023-05-04T04:45:01.957Z,583.00
2023-05-04T04:46:02.026Z,581.00
2023-05-04T04:47:02.141Z,579.00
2023-05-04T04:48:02.196Z,580.00
2023-05-04T04:49:02.188Z,579.00
2023-05-04T04:50:02.444Z,582.00
2023-05-04T04:51:02.283Z,583.00
2023-05-04T04:52:02.333Z,588.00
2023-05-04T04:53:02.411Z,588.00
2023-05-04T04:54:02.471Z,586.00
2023-05-04T04:55:02.520Z,586.00
2023-05-04T04:56:02.568Z,587.00
2023-05-04T04:57:02.591Z,587.00
2023-05-04T04:58:02.638Z,585.00
2023-05-04T04:59:02.666Z,583.00
2023-05-04T05:00:02.866Z,580.00
2023-05-04T05:01:02.855Z,578.00
2023-05-04T05:02:02.798Z,577.00
2023-05-04T05:03:02.897Z,577.00
2023-05-04T05:04:02.872Z,579.00
2023-05-04T05:05:02.941Z,579.00
2023-05-04T05:06:02.947Z,578.00
2023-05-04T05:07:03.037Z,580.00
2023-05-04T05:08:03.036Z,579.00
2023-05-04T05:09:03.080Z,577.00
2023-05-04T05:10:03.291Z,577.00
2023-05-04T05:11:03.157Z,577.00
2023-05-04T05:12:03.201Z,576.00
2023-05-04T05:13:03.301Z,578.00
2023-05-04T05:14:03.276Z,579.00
2023-05-04T05:15:03.325Z,577.00
2023-05-04T05:16:03.368Z,578.00
2023-05-04T05:17:03.550Z,579.00
2023-05-04T05:18:03.528Z,580.00
2023-05-04T05:19:03.509Z,579.00
2023-05-04T05:20:03.794Z,581.00
2023-05-04T05:21:03.602Z,584.00
2023-05-04T05:22:03.644Z,585.00
2023-05-04T05:23:04.200Z,584.00
2023-05-04T05:24:03.734Z,584.00
2023-05-04T05:25:03.754Z,594.00
2023-05-04T05:26:03.802Z,649.00
2023-05-04T05:27:03.859Z,639.00
2023-05-04T05:28:03.910Z,641.00
2023-05-04T05:29:03.962Z,660.00
2023-05-04T05:30:04.208Z,701.00
2023-05-04T05:31:04.140Z,760.00
2023-05-04T05:32:04.139Z,818.00
2023-05-04T05:33:04.267Z,857.00
2023-05-04T05:34:04.254Z,888.00
2023-05-04T05:35:04.284Z,930.00
2023-05-04T05:36:04.395Z,991.00
2023-05-04T05:37:04.374Z,1022.00
2023-05-04T05:38:04.400Z,1069.00
2023-05-04T05:39:04.428Z,1082.00
2023-05-04T05:40:04.627Z,1121.00
2023-05-04T05:41:04.477Z,1146.00
2023-05-04T05:42:04.501Z,1167.00
2023-05-04T05:43:05.215Z,1231.00
2023-05-04T05:44:05.239Z,1330.00
2023-05-04T05:45:04.567Z,1331.00
2023-05-04T05:46:04.575Z,1325.00
2023-05-04T05:47:04.546Z,1336.00
2023-05-04T05:48:04.650Z,1390.00
2023-05-04T05:49:04.568Z,1378.00
2023-05-04T05:50:04.879Z,1395.00
2023-05-04T05:51:04.579Z,1440.00
2023-05-04T05:52:04.590Z,1486.00
2023-05-04T05:53:04.600Z,1526.00
2023-05-04T05:54:04.694Z,1563.00
2023-05-04T05:55:04.605Z,1586.00
2023-05-04T05:56:04.596Z,1657.00
2023-05-04T05:57:04.585Z,1728.00
2023-05-04T05:58:04.648Z,1745.00
2023-05-04T05:59:04.581Z,1744.00
2023-05-04T06:00:04.798Z,1753.00
2023-05-04T06:01:05.138Z,1801.00
2023-05-04T06:02:04.558Z,1814.00
2023-05-04T06:03:04.637Z,1870.00
2023-05-04T06:04:04.773Z,1890.00
2023-05-04T06:05:05.377Z,1951.00
2023-05-04T06:06:04.572Z,1963.00
2023-05-04T06:07:04.566Z,1985.00
2023-05-04T06:08:04.558Z,2003.00
2023-05-04T06:09:04.592Z,2066.00
2023-05-04T06:10:04.892Z,2076.00
2023-05-04T06:11:04.604Z,2115.00
2023-05-04T06:12:04.597Z,2148.00
2023-05-04T06:13:04.723Z,2195.00
2023-05-04T06:14:05.240Z,2222.00
2023-05-04T06:15:04.707Z,2256.00
2023-05-04T06:16:04.706Z,2293.00
2023-05-04T06:17:04.726Z,2313.00
2023-05-04T06:18:04.817Z,2359.00
2023-05-04T06:19:04.758Z,2387.00
2023-05-04T06:20:06.098Z,2409.00
2023-05-04T06:21:05.229Z,2519.00
2023-05-04T06:22:04.868Z,2528.00
2023-05-04T06:23:04.895Z,2506.00
2023-05-04T06:24:04.932Z,2495.00
2023-05-04T06:25:07.687Z,2496.00
2023-05-04T06:26:04.932Z,2541.00
2023-05-04T06:27:04.903Z,2622.00
2023-05-04T06:28:04.881Z,2628.00
2023-05-04T06:29:04.872Z,2629.00
2023-05-04T06:30:05.029Z,2621.00
2023-05-04T06:31:04.846Z,2612.00
2023-05-04T06:32:05.010Z,2595.00
2023-05-04T06:33:04.810Z,2527.00
2023-05-04T06:34:04.827Z,2285.00
2023-05-04T06:35:04.746Z,2229.00
2023-05-04T06:36:04.725Z,2326.00
2023-05-04T06:37:04.709Z,2226.00
2023-05-04T06:38:04.694Z,2272.00
2023-05-04T06:39:04.753Z,2197.00
2023-05-04T06:40:04.653Z,2170.00
2023-05-04T06:41:04.667Z,2163.00
2023-05-04T06:42:04.638Z,2118.00
2023-05-04T06:43:04.682Z,1942.00
2023-05-04T06:44:04.690Z,1908.00
2023-05-04T06:45:04.586Z,1879.00
2023-05-04T06:46:04.698Z,1894.00
2023-05-04T06:47:04.572Z,1918.00
2023-05-04T06:48:04.684Z,1913.00
2023-05-04T06:49:04.544Z,1814.00
2023-05-04T06:50:04.701Z,1794.00
2023-05-04T06:51:04.501Z,1769.00
2023-05-04T06:52:04.500Z,1826.00
2023-05-04T06:53:04.487Z,1799.00
2023-05-04T06:54:04.455Z,1806.00
2023-05-04T06:55:04.519Z,1810.00
2023-05-04T06:56:05.231Z,1803.00
2023-05-04T06:57:04.451Z,1729.00
2023-05-04T06:58:04.425Z,1752.00
2023-05-04T06:59:04.415Z,1752.00
2023-05-04T07:00:04.587Z,1746.00
2023-05-04T07:01:04.425Z,1729.00
2023-05-04T07:02:04.384Z,1642.00
2023-05-04T07:03:04.378Z,1580.00
2023-05-04T07:04:04.450Z,1651.00
2023-05-04T07:05:04.329Z,1649.00
2023-05-04T07:06:04.316Z,1630.00
2023-05-04T07:07:05.239Z,1630.00
2023-05-04T07:08:04.351Z,1625.00
2023-05-04T07:09:04.269Z,1620.00
2023-05-04T07:10:04.548Z,1621.00
2023-05-04T07:11:04.246Z,1623.00
2023-05-04T07:12:04.240Z,1621.00
2023-05-04T07:13:04.244Z,1618.00
2023-05-04T07:14:04.373Z,1612.00
2023-05-04T07:15:04.187Z,1607.00
2023-05-04T07:16:04.240Z,1495.00
2023-05-04T07:17:04.165Z,1300.00
2023-05-04T07:18:04.190Z,1402.00
2023-05-04T07:19:04.134Z,1191.00
2023-05-04T07:20:04.488Z,1193.00
2023-05-04T07:21:21.774Z,1153.00
2023-05-04T07:22:05.101Z,1272.00
2023-05-04T07:23:04.075Z,1289.00
2023-05-04T07:24:04.114Z,1298.00
2023-05-04T07:25:04.744Z,1306.00
2023-05-04T07:26:04.055Z,1310.00
2023-05-04T07:27:04.052Z,1318.00
2023-05-04T07:28:04.046Z,1322.00
2023-05-04T07:29:04.027Z,1320.00
2023-05-04T07:30:05.310Z,1321.00
2023-05-04T07:31:04.014Z,1332.00
2023-05-04T07:32:04.056Z,1340.00
2023-05-04T07:33:04.701Z,1354.00
2023-05-04T07:34:03.978Z,1359.00
2023-05-04T07:35:04.739Z,1364.00
2023-05-04T07:36:03.928Z,1366.00
2023-05-04T07:37:03.909Z,1364.00
2023-05-04T07:38:03.903Z,1360.00
2023-05-04T07:39:03.930Z,1365.00
2023-05-04T07:40:04.133Z,1370.00
2023-05-04T07:41:03.842Z,1378.00
2023-05-04T07:42:03.817Z,1387.00
2023-05-04T07:43:03.799Z,1412.00
2023-05-04T07:44:03.769Z,1415.00
2023-05-04T07:45:03.753Z,1412.00
2023-05-04T07:46:04.031Z,1405.00
2023-05-04T07:47:03.800Z,1407.00
2023-05-04T07:48:03.875Z,1410.00
2023-05-04T07:49:03.873Z,1414.00
2023-05-04T07:50:04.282Z,1416.00
2023-05-04T07:51:03.968Z,1415.00
2023-05-04T07:52:04.023Z,1414.00
2023-05-04T07:53:04.063Z,1412.00
2023-05-04T07:54:04.112Z,1413.00
2023-05-04T07:55:04.242Z,1404.00
2023-05-04T07:56:04.265Z,1405.00
2023-05-04T07:57:04.251Z,1403.00
2023-05-04T07:58:05.271Z,1420.00
2023-05-04T07:59:04.339Z,1435.00
2023-05-04T08:00:04.524Z,1426.00
2023-05-04T08:01:04.451Z,1421.00
2023-05-04T08:02:04.596Z,1419.00
2023-05-04T08:03:04.595Z,1426.00
2023-05-04T08:04:04.607Z,1471.00
2023-05-04T08:05:04.676Z,1462.00
2023-05-04T08:06:04.739Z,1456.00
2023-05-04T08:07:04.757Z,1450.00
2023-05-04T08:08:04.824Z,1448.00
2023-05-04T08:09:04.853Z,1453.00
2023-05-04T08:10:05.103Z,1458.00
2023-05-04T08:11:15.967Z,1465.00
2023-05-04T08:12:05.924Z,1472.00
2023-05-04T08:13:04.948Z,1476.00
2023-05-04T08:14:04.879Z,1351.00
2023-05-04T08:15:05.078Z,1399.00
2023-05-04T08:16:04.838Z,1403.00
2023-05-04T08:17:04.910Z,1403.00
2023-05-04T08:18:04.838Z,1364.00
2023-05-04T08:19:04.810Z,1356.00
2023-05-04T08:20:04.771Z,1353.00
2023-05-04T08:21:05.063Z,1352.00
2023-05-04T08:22:04.832Z,1306.00
2023-05-04T08:23:04.862Z,1015.00
2023-05-04T08:24:04.867Z,1015.00
2023-05-04T08:25:05.040Z,1054.00
2023-05-04T08:26:04.853Z,1054.00
2023-05-04T08:27:08.778Z,1049.00
2023-05-04T08:28:05.810Z,1101.00
2023-05-04T08:29:04.793Z,1122.00
2023-05-04T08:30:04.770Z,1130.00
2023-05-04T08:31:04.751Z,1154.00
2023-05-04T08:32:04.840Z,1173.00
2023-05-04T08:33:04.801Z,1190.00
2023-05-04T08:34:04.709Z,1203.00
2023-05-04T08:35:04.813Z,1219.00
2023-05-04T08:36:04.695Z,1238.00
2023-05-04T08:37:04.768Z,1246.00
2023-05-04T08:38:04.814Z,1250.00
2023-05-04T08:39:05.699Z,1258.00
2023-05-04T08:40:04.896Z,1265.00
2023-05-04T08:41:04.954Z,1273.00
2023-05-04T08:42:05.004Z,1278.00
2023-05-04T08:43:05.065Z,1292.00
2023-05-04T08:44:05.126Z,1308.00
2023-05-04T08:45:05.481Z,1314.00
2023-05-04T08:46:05.333Z,1324.00
2023-05-04T08:47:05.249Z,1333.00
2023-05-04T08:48:05.338Z,1344.00
2023-05-04T08:49:05.363Z,1347.00
2023-05-04T08:50:05.385Z,1352.00
2023-05-04T08:51:05.434Z,1357.00
2023-05-04T08:52:05.458Z,1365.00
2023-05-04T08:53:05.492Z,1398.00
2023-05-04T08:54:05.510Z,1402.00
2023-05-04T08:55:05.718Z,1405.00
2023-05-04T08:56:05.564Z,1410.00
2023-05-04T08:57:05.599Z,1425.00
2023-05-04T08:58:05.617Z,1475.00
2023-05-04T08:59:05.647Z,1477.00
2023-05-04T09:00:05.657Z,1476.00
2023-05-04T09:01:05.723Z,1491.00
2023-05-04T09:02:05.920Z,1505.00
2023-05-04T09:03:05.747Z,1528.00
2023-05-04T09:04:06.363Z,1541.00
2023-05-04T09:05:05.888Z,1549.00
2023-05-04T09:06:05.896Z,1569.00
2023-05-04T09:07:05.704Z,1598.00
2023-05-04T09:08:05.706Z,1615.00
2023-05-04T09:09:05.689Z,1625.00
2023-05-04T09:10:05.672Z,1632.00
2023-05-04T09:11:05.685Z,1639.00
2023-05-04T09:12:05.665Z,1640.00
2023-05-04T09:13:05.739Z,1658.00
2023-05-04T09:14:05.653Z,1695.00
2023-05-04T09:15:06.141Z,1678.00
2023-05-04T09:16:05.668Z,1556.00
2023-05-04T09:17:05.744Z,1562.00
2023-05-04T09:18:05.712Z,1569.00
2023-05-04T09:19:06.296Z,1552.00
2023-05-04T09:20:05.761Z,1533.00
2023-05-04T09:21:05.814Z,1340.00
2023-05-04T09:22:05.794Z,1394.00
2023-05-04T09:23:05.811Z,1404.00
2023-05-04T09:24:06.299Z,1442.00
2023-05-04T09:25:06.032Z,1456.00
2023-05-04T09:26:05.908Z,1511.00
2023-05-04T09:27:05.931Z,1563.00
2023-05-04T09:28:05.944Z,1568.00
2023-05-04T09:29:05.956Z,1628.00
2023-05-04T09:30:06.008Z,1635.00
2023-05-04T09:31:05.996Z,1643.00
2023-05-04T09:32:06.024Z,1649.00
2023-05-04T09:33:06.034Z,1655.00
2023-05-04T09:34:05.995Z,1669.00
2023-05-04T09:35:06.185Z,1675.00
2023-05-04T09:36:06.007Z,1683.00
2023-05-04T09:37:06.013Z,1694.00
2023-05-04T09:38:06.760Z,1699.00
2023-05-04T09:39:06.039Z,1701.00
2023-05-04T09:40:06.045Z,1700.00
2023-05-04T09:41:06.044Z,1694.00
2023-05-04T09:42:06.052Z,1686.00
2023-05-04T09:43:06.046Z,1676.00
2023-05-04T09:44:06.054Z,1672.00
2023-05-04T09:45:06.383Z,1676.00
2023-05-04T09:46:06.054Z,1677.00
2023-05-04T09:47:06.045Z,1679.00
2023-05-04T09:48:06.072Z,1680.00
2023-05-04T09:49:06.028Z,1685.00
2023-05-04T09:50:06.052Z,1698.00
2023-05-04T09:51:06.022Z,1704.00
2023-05-04T09:52:06.030Z,1709.00
2023-05-04T09:53:06.018Z,1708.00
2023-05-04T09:54:05.995Z,1693.00
2023-05-04T09:55:06.275Z,1677.00
2023-05-04T09:56:08.133Z,1687.00
2023-05-04T09:57:06.314Z,1692.00
2023-05-04T09:58:05.952Z,1697.00
2023-05-04T09:59:05.939Z,1688.00
2023-05-04T10:00:05.912Z,1686.00
2023-05-04T10:01:05.890Z,1689.00
2023-05-04T10:02:18.095Z,1688.00
2023-05-04T10:03:06.898Z,1678.00
2023-05-04T10:04:05.819Z,1670.00
2023-05-04T10:05:06.100Z,1654.00
2023-05-04T10:06:05.838Z,1632.00
2023-05-04T10:07:06.736Z,1628.00
2023-05-04T10:08:05.777Z,1625.00
2023-05-04T10:09:05.761Z,1629.00
2023-05-04T10:10:05.702Z,1624.00
2023-05-04T10:11:05.701Z,1618.00
2023-05-04T10:12:05.674Z,1531.00
2023-05-04T10:13:05.716Z,1479.00
2023-05-04T10:14:05.698Z,1473.00
2023-05-04T10:15:05.712Z,1493.00
2023-05-04T10:16:05.603Z,1496.00
2023-05-04T10:17:05.549Z,1489.00
2023-05-04T10:18:05.525Z,1464.00
2023-05-04T10:19:05.499Z,1447.00
2023-05-04T10:20:05.496Z,1431.00
2023-05-04T10:21:05.463Z,1432.00
2023-05-04T10:22:06.286Z,1437.00
2023-05-04T10:23:05.465Z,1439.00
2023-05-04T10:24:05.421Z,1441.00
2023-05-04T10:25:05.555Z,1443.00
2023-05-04T10:26:05.319Z,1442.00
2023-05-04T10:27:05.303Z,1444.00
2023-05-04T10:28:05.269Z,1441.00
2023-05-04T10:29:05.281Z,1439.00
2023-05-04T10:30:05.309Z,1440.00
2023-05-04T10:31:05.317Z,1438.00
2023-05-04T10:32:05.500Z,1439.00
2023-05-04T10:33:05.407Z,1441.00
2023-05-04T10:34:05.362Z,1437.00
2023-05-04T10:35:05.632Z,1437.00
2023-05-04T10:36:05.404Z,1441.00
2023-05-04T10:37:05.429Z,1439.00
2023-05-04T10:38:05.455Z,1437.00
2023-05-04T10:39:05.479Z,1435.00
2023-05-04T10:40:07.679Z,1437.00
2023-05-04T10:41:05.560Z,1437.00
2023-05-04T10:42:05.609Z,1435.00
2023-05-04T10:43:05.620Z,1432.00
2023-05-04T10:44:05.649Z,1430.00
2023-05-04T10:45:05.877Z,1428.00
2023-05-04T10:46:05.785Z,1431.00
2023-05-04T10:47:05.808Z,1431.00
2023-05-04T10:48:05.783Z,1431.00
2023-05-04T10:49:05.812Z,1428.00
2023-05-04T10:50:05.794Z,1425.00
2023-05-04T10:51:05.852Z,1423.00
2023-05-04T10:52:05.877Z,1425.00
2023-05-04T10:53:05.886Z,1427.00
2023-05-04T10:54:05.908Z,1427.00
2023-05-04T10:55:06.261Z,1430.00
2023-05-04T10:56:05.961Z,1431.00
2023-05-04T10:57:05.980Z,1430.00
2023-05-04T10:58:06.033Z,1431.00
2023-05-04T10:59:06.156Z,1431.00
2023-05-04T11:00:06.093Z,1428.00
2023-05-04T11:01:06.154Z,1425.00
2023-05-04T11:02:06.184Z,1424.00
2023-05-04T11:03:06.311Z,1418.00
2023-05-04T11:04:06.245Z,1415.00
2023-05-04T11:05:06.543Z,1403.00
2023-05-04T11:06:06.305Z,1412.00
2023-05-04T11:07:06.510Z,1422.00
2023-05-04T11:08:06.414Z,1428.00
2023-05-04T11:09:06.457Z,1433.00
2023-05-04T11:10:06.501Z,1433.00
2023-05-04T11:11:06.536Z,1435.00
2023-05-04T11:12:06.636Z,1443.00
2023-05-04T11:13:07.731Z,1449.00
2023-05-04T11:14:06.662Z,1453.00
2023-05-04T11:15:06.968Z,1452.00
2023-05-04T11:16:06.769Z,1449.00
2023-05-04T11:17:12.708Z,1445.00
2023-05-04T11:18:07.800Z,1443.00
2023-05-04T11:19:06.733Z,1439.00
2023-05-04T11:20:06.717Z,1442.00
2023-05-04T11:21:06.698Z,1441.00
2023-05-04T11:22:07.680Z,1443.00
2023-05-04T11:23:06.659Z,1440.00
2023-05-04T11:24:06.640Z,1434.00
2023-05-04T11:25:06.746Z,1433.00
2023-05-04T11:26:06.636Z,1429.00
2023-05-04T11:27:06.656Z,1429.00
2023-05-04T11:28:06.685Z,1427.00
2023-05-04T11:29:06.702Z,1427.00
2023-05-04T11:30:06.817Z,1426.00
2023-05-04T11:31:06.814Z,1424.00
2023-05-04T11:32:06.793Z,1426.00
2023-05-04T11:33:06.864Z,1430.00
2023-05-04T11:34:06.842Z,1430.00
2023-05-04T11:35:07.069Z,1424.00
2023-05-04T11:36:06.889Z,1424.00
2023-05-04T11:37:06.922Z,1423.00
2023-05-04T11:38:07.013Z,1426.00
2023-05-04T11:39:06.977Z,1425.00
2023-05-04T11:40:07.005Z,1425.00
2023-05-04T11:41:07.034Z,1422.00
2023-05-04T11:42:07.864Z,1425.00
2023-05-04T11:43:07.137Z,1425.00
2023-05-04T11:44:07.144Z,1418.00
2023-05-04T11:45:07.429Z,1392.00
2023-05-04T11:46:07.268Z,1409.00
2023-05-04T11:47:07.247Z,1425.00
2023-05-04T11:48:07.331Z,1452.00
2023-05-04T11:49:07.396Z,1468.00
2023-05-04T11:50:07.343Z,1473.00
2023-05-04T11:51:07.455Z,1475.00
2023-05-04T11:52:07.409Z,1484.00
2023-05-04T11:53:07.431Z,1495.00
2023-05-04T11:54:07.454Z,1522.00
2023-05-04T11:55:07.763Z,1536.00
2023-05-04T11:56:07.503Z,1536.00
2023-05-04T11:57:07.518Z,1541.00
2023-05-04T11:58:07.552Z,1558.00
2023-05-04T11:59:07.563Z,1574.00
2023-05-04T12:00:08.351Z,1584.00
2023-05-04T12:01:07.600Z,1600.00
2023-05-04T12:02:07.603Z,1614.00
2023-05-04T12:03:07.763Z,1624.00
2023-05-04T12:04:07.806Z,1637.00
2023-05-04T12:05:07.836Z,1664.00
2023-05-04T12:06:07.675Z,1676.00
2023-05-04T12:07:07.697Z,1685.00
2023-05-04T12:08:07.716Z,1699.00
2023-05-04T12:09:07.726Z,1704.00
2023-05-04T12:10:07.728Z,1709.00
2023-05-04T12:11:07.743Z,1720.00
2023-05-04T12:12:07.794Z,1729.00
2023-05-04T12:13:08.424Z,1756.00
2023-05-04T12:14:07.864Z,1765.00
2023-05-04T12:15:08.053Z,1771.00
2023-05-04T12:16:07.826Z,1781.00